sensor_id;sensor_type;location;lat;lon;timestamp;pressure;altitude;pressure_sealevel;temperature;humidity
36932;BME280;22847;42.654;23.370;2023-04-25T00:00:19;93938.31;;;13.57;78.49
36932;BME280;22847;42.654;23.370;2023-04-25T00:02:45;93842.97;;;13.22;77.86
36932;BME280;22847;42.654;23.370;2023-04-25T00:05:11;93894.06;;;13.48;77.71
36932;BME280;22847;42.654;23.370;2023-04-25T00:07:37;93951.41;;;13.72;78.07
36932;BME280;22847;42.654;23.370;2023-04-25T00:10:03;93972.63;;;13.62;79.41
36932;BME280;22847;42.654;23.370;2023-04-25T00:12:29;93941.84;;;13.50;79.75
36932;BME280;22847;42.654;23.370;2023-04-25T00:14:54;93898.66;;;12.93;82.07
36932;BME280;22847;42.654;23.370;2023-04-25T00:17:22;93936.13;;;12.71;83.73
36932;BME280;22847;42.654;23.370;2023-04-25T00:19:50;93923.22;;;13.07;83.63
36932;BME280;22847;42.654;23.370;2023-04-25T00:22:15;93787.84;;;12.20;84.08
36932;BME280;22847;42.654;23.370;2023-04-25T00:24:41;93911.47;;;13.26;83.37
36932;BME280;22847;42.654;23.370;2023-04-25T00:27:07;93844.25;;;12.37;86.22
36932;BME280;22847;42.654;23.370;2023-04-25T00:29:33;93749.81;;;11.94;85.75
36932;BME280;22847;42.654;23.370;2023-04-25T00:31:59;93880.09;;;12.66;86.16
36932;BME280;22847;42.654;23.370;2023-04-25T00:34:24;93802.59;;;11.59;88.15
36932;BME280;22847;42.654;23.370;2023-04-25T00:36:49;93904.78;;;11.95;91.57
36932;BME280;22847;42.654;23.370;2023-04-25T00:39:15;93708.44;;;10.76;91.94
36932;BME280;22847;42.654;23.370;2023-04-25T00:41:40;93843.75;;;11.49;92.63
36932;BME280;22847;42.654;23.370;2023-04-25T00:44:08;93723.13;;;10.61;94.30
36932;BME280;22847;42.654;23.370;2023-04-25T00:46:35;93886.97;;;11.59;96.50
36932;BME280;22847;42.654;23.370;2023-04-25T00:49:00;93888.69;;;11.83;95.01
36932;BME280;22847;42.654;23.370;2023-04-25T00:51:26;93861.06;;;11.50;94.12
36932;BME280;22847;42.654;23.370;2023-04-25T00:53:52;93683.72;;;10.56;93.15
36932;BME280;22847;42.654;23.370;2023-04-25T00:56:18;93816.72;;;11.42;93.74
36932;BME280;22847;42.654;23.370;2023-04-25T00:58:45;93882.13;;;11.87;93.03
36932;BME280;22847;42.654;23.370;2023-04-25T01:01:11;93884.34;;;11.98;93.46
36932;BME280;22847;42.654;23.370;2023-04-25T01:03:38;93881.56;;;12.00;91.07
36932;BME280;22847;42.654;23.370;2023-04-25T01:06:10;93887.59;;;12.00;89.80
36932;BME280;22847;42.654;23.370;2023-04-25T01:08:37;93906.41;;;11.96;90.74
36932;BME280;22847;42.654;23.370;2023-04-25T01:11:03;93902.66;;;12.21;90.54
36932;BME280;22847;42.654;23.370;2023-04-25T01:13:29;93911.47;;;12.51;88.69
36932;BME280;22847;42.654;23.370;2023-04-25T01:15:57;93821.22;;;12.55;87.76
36932;BME280;22847;42.654;23.370;2023-04-25T01:18:23;93854.28;;;12.85;87.15
36932;BME280;22847;42.654;23.370;2023-04-25T01:20:51;93688.16;;;12.08;84.93
36932;BME280;22847;42.654;23.370;2023-04-25T01:23:17;93847.44;;;12.99;84.86
36932;BME280;22847;42.654;23.370;2023-04-25T01:25:43;93865.25;;;12.43;87.28
36932;BME280;22847;42.654;23.370;2023-04-25T01:28:09;93820.75;;;12.66;86.59
36932;BME280;22847;42.654;23.370;2023-04-25T01:30:35;93858.31;;;12.88;85.74
36932;BME280;22847;42.654;23.370;2023-04-25T01:33:01;93879.56;;;13.08;85.33
36932;BME280;22847;42.654;23.370;2023-04-25T01:35:27;93817.53;;;12.79;85.45
36932;BME280;22847;42.654;23.370;2023-04-25T01:37:53;93824.78;;;12.91;85.51
36932;BME280;22847;42.654;23.370;2023-04-25T01:40:20;93848.06;;;12.86;85.79
36932;BME280;22847;42.654;23.370;2023-04-25T01:42:46;93683.28;;;12.05;84.53
36932;BME280;22847;42.654;23.370;2023-04-25T01:45:11;93862.81;;;13.17;85.06
36932;BME280;22847;42.654;23.370;2023-04-25T01:47:38;93692.97;;;12.34;83.63
36932;BME280;22847;42.654;23.370;2023-04-25T01:50:05;93823.81;;;13.22;83.51
36932;BME280;22847;42.654;23.370;2023-04-25T01:52:31;93849.72;;;13.17;83.76
36932;BME280;22847;42.654;23.370;2023-04-25T01:54:57;93861.66;;;13.49;82.93
36932;BME280;22847;42.654;23.370;2023-04-25T01:57:24;93875.81;;;13.25;83.37
36932;BME280;22847;42.654;23.370;2023-04-25T01:59:49;93848.38;;;13.21;83.42
36932;BME280;22847;42.654;23.370;2023-04-25T02:02:15;93864.81;;;13.44;82.54
36932;BME280;22847;42.654;23.370;2023-04-25T02:04:41;93844.41;;;13.25;82.09
36932;BME280;22847;42.654;23.370;2023-04-25T02:07:06;93884.50;;;13.40;82.13
36932;BME280;22847;42.654;23.370;2023-04-25T02:09:31;93868.34;;;13.36;82.26
36932;BME280;22847;42.654;23.370;2023-04-25T02:11:57;93857.88;;;13.36;82.55
36932;BME280;22847;42.654;23.370;2023-04-25T02:14:23;93846.41;;;13.23;82.67
36932;BME280;22847;42.654;23.370;2023-04-25T02:16:48;93829.56;;;13.03;83.29
36932;BME280;22847;42.654;23.370;2023-04-25T02:19:16;93679.88;;;12.04;83.54
36932;BME280;22847;42.654;23.370;2023-04-25T02:21:41;93850.72;;;13.16;83.34
36932;BME280;22847;42.654;23.370;2023-04-25T02:24:07;93661.50;;;12.13;82.54
36932;BME280;22847;42.654;23.370;2023-04-25T02:26:33;93691.91;;;12.28;83.31
36932;BME280;22847;42.654;23.370;2023-04-25T02:28:58;93823.44;;;13.10;83.11
36932;BME280;22847;42.654;23.370;2023-04-25T02:31:24;93831.84;;;13.20;82.80
36932;BME280;22847;42.654;23.370;2023-04-25T02:33:49;93802.66;;;12.94;82.58
36932;BME280;22847;42.654;23.370;2023-04-25T02:36:14;93828.28;;;12.98;83.01
36932;BME280;22847;42.654;23.370;2023-04-25T02:38:40;93807.81;;;13.02;82.77
36932;BME280;22847;42.654;23.370;2023-04-25T02:41:05;93790.84;;;12.83;82.92
36932;BME280;22847;42.654;23.370;2023-04-25T02:43:31;93832.59;;;13.14;82.09
36932;BME280;22847;42.654;23.370;2023-04-25T02:45:56;93772.72;;;12.96;81.68
36932;BME280;22847;42.654;23.370;2023-04-25T02:48:22;93662.50;;;12.26;81.53
36932;BME280;22847;42.654;23.370;2023-04-25T02:50:47;93827.16;;;13.30;81.64
36932;BME280;22847;42.654;23.370;2023-04-25T02:53:13;93811.56;;;13.22;81.13
36932;BME280;22847;42.654;23.370;2023-04-25T02:55:38;93796.75;;;13.15;81.63
36932;BME280;22847;42.654;23.370;2023-04-25T02:58:04;93736.97;;;12.74;81.26
36932;BME280;22847;42.654;23.370;2023-04-25T03:00:30;93811.19;;;13.25;81.05
36932;BME280;22847;42.654;23.370;2023-04-25T03:02:55;93806.31;;;13.22;81.03
36932;BME280;22847;42.654;23.370;2023-04-25T03:05:21;93850.28;;;13.27;80.63
36932;BME280;22847;42.654;23.370;2023-04-25T03:07:46;93782.50;;;13.17;80.29
36932;BME280;22847;42.654;23.370;2023-04-25T03:10:12;93778.78;;;13.12;80.29
36932;BME280;22847;42.654;23.370;2023-04-25T03:12:37;93794.09;;;12.85;81.65
36932;BME280;22847;42.654;23.370;2023-04-25T03:15:03;93817.94;;;13.05;81.39
36932;BME280;22847;42.654;23.370;2023-04-25T03:17:29;93776.97;;;12.83;81.57
36932;BME280;22847;42.654;23.370;2023-04-25T03:19:55;93785.63;;;12.69;82.51
36932;BME280;22847;42.654;23.370;2023-04-25T03:22:21;93638.94;;;11.82;83.51
36932;BME280;22847;42.654;23.370;2023-04-25T03:24:47;93841.75;;;12.95;82.83
36932;BME280;22847;42.654;23.370;2023-04-25T03:27:13;93811.69;;;12.91;82.91
36932;BME280;22847;42.654;23.370;2023-04-25T03:29:38;93600.06;;;11.64;82.49
36932;BME280;22847;42.654;23.370;2023-04-25T03:32:04;93778.31;;;12.64;83.92
36932;BME280;22847;42.654;23.370;2023-04-25T03:34:29;93636.31;;;11.82;83.78
36932;BME280;22847;42.654;23.370;2023-04-25T03:36:55;93798.69;;;12.98;83.45
36932;BME280;22847;42.654;23.370;2023-04-25T03:39:20;93778.69;;;12.90;82.55
36932;BME280;22847;42.654;23.370;2023-04-25T03:41:46;93764.47;;;12.41;84.40
36932;BME280;22847;42.654;23.370;2023-04-25T03:44:11;93696.00;;;12.08;84.79
36932;BME280;22847;42.654;23.370;2023-04-25T03:46:36;93809.34;;;12.82;84.65
36932;BME280;22847;42.654;23.370;2023-04-25T03:49:02;93828.47;;;12.82;84.28
36932;BME280;22847;42.654;23.370;2023-04-25T03:51:27;93818.09;;;12.89;83.01
36932;BME280;22847;42.654;23.370;2023-04-25T03:53:53;93780.91;;;12.79;82.61
36932;BME280;22847;42.654;23.370;2023-04-25T03:56:18;93799.84;;;12.66;83.19
36932;BME280;22847;42.654;23.370;2023-04-25T03:58:44;93812.47;;;12.63;84.42
36932;BME280;22847;42.654;23.370;2023-04-25T04:01:09;93795.00;;;12.78;84.21
36932;BME280;22847;42.654;23.370;2023-04-25T04:03:35;93741.03;;;12.62;84.07
36932;BME280;22847;42.654;23.370;2023-04-25T04:06:05;93591.41;;;11.64;84.93
36932;BME280;22847;42.654;23.370;2023-04-25T04:08:31;93794.22;;;12.92;85.20
36932;BME280;22847;42.654;23.370;2023-04-25T04:10:58;93629.94;;;11.39;87.48
36932;BME280;22847;42.654;23.370;2023-04-25T04:13:25;93779.91;;;12.13;89.66
36932;BME280;22847;42.654;23.370;2023-04-25T04:15:51;93792.78;;;12.15;88.95
36932;BME280;22847;42.654;23.370;2023-04-25T04:18:16;93665.66;;;11.84;91.61
36932;BME280;22847;42.654;23.370;2023-04-25T04:20:41;93810.25;;;13.04;86.48
36932;BME280;22847;42.654;23.370;2023-04-25T04:23:07;93822.59;;;12.80;84.22
36932;BME280;22847;42.654;23.370;2023-04-25T04:25:32;93707.69;;;11.97;85.31
36932;BME280;22847;42.654;23.370;2023-04-25T04:27:58;93661.97;;;11.33;88.06
36932;BME280;22847;42.654;23.370;2023-04-25T04:30:24;93784.31;;;12.13;88.37
36932;BME280;22847;42.654;23.370;2023-04-25T04:32:51;93813.19;;;12.34;88.00
36932;BME280;22847;42.654;23.370;2023-04-25T04:35:17;93813.53;;;12.53;86.89
36932;BME280;22847;42.654;23.370;2023-04-25T04:37:42;93815.72;;;12.65;85.31
36932;BME280;22847;42.654;23.370;2023-04-25T04:40:09;93785.78;;;12.67;85.17
36932;BME280;22847;42.654;23.370;2023-04-25T04:42:34;93813.13;;;12.79;84.79
36932;BME280;22847;42.654;23.370;2023-04-25T04:45:01;93631.84;;;11.68;84.65
36932;BME280;22847;42.654;23.370;2023-04-25T04:47:28;93808.88;;;12.64;85.07
36932;BME280;22847;42.654;23.370;2023-04-25T04:49:56;93785.41;;;12.70;85.03
36932;BME280;22847;42.654;23.370;2023-04-25T04:52:22;93818.38;;;12.94;83.96
36932;BME280;22847;42.654;23.370;2023-04-25T04:54:47;93829.66;;;12.94;83.66
36932;BME280;22847;42.654;23.370;2023-04-25T04:57:12;93827.34;;;13.14;83.31
36932;BME280;22847;42.654;23.370;2023-04-25T04:59:38;93801.03;;;12.93;82.95
36932;BME280;22847;42.654;23.370;2023-04-25T05:02:03;93779.03;;;12.87;82.30
36932;BME280;22847;42.654;23.370;2023-04-25T05:04:29;93689.09;;;12.30;82.17
36932;BME280;22847;42.654;23.370;2023-04-25T05:06:54;93823.44;;;12.95;82.32
36932;BME280;22847;42.654;23.370;2023-04-25T05:09:19;93818.03;;;12.45;83.40
36932;BME280;22847;42.654;23.370;2023-04-25T05:11:45;93851.66;;;12.85;83.57
36932;BME280;22847;42.654;23.370;2023-04-25T05:14:11;93853.47;;;13.00;83.77
36932;BME280;22847;42.654;23.370;2023-04-25T05:16:36;93845.31;;;13.17;83.71
36932;BME280;22847;42.654;23.370;2023-04-25T05:19:01;93719.84;;;12.42;83.38
36932;BME280;22847;42.654;23.370;2023-04-25T05:21:27;93691.06;;;12.28;83.85
36932;BME280;22847;42.654;23.370;2023-04-25T05:23:53;93768.47;;;12.81;82.97
36932;BME280;22847;42.654;23.370;2023-04-25T05:26:19;93792.09;;;12.73;83.81
36932;BME280;22847;42.654;23.370;2023-04-25T05:28:45;93836.19;;;13.28;83.14
36932;BME280;22847;42.654;23.370;2023-04-25T05:31:11;93820.19;;;13.08;83.76
36932;BME280;22847;42.654;23.370;2023-04-25T05:33:36;93809.66;;;13.16;83.48
36932;BME280;22847;42.654;23.370;2023-04-25T05:36:02;93863.72;;;13.24;82.79
36932;BME280;22847;42.654;23.370;2023-04-25T05:38:28;93796.00;;;12.91;83.09
36932;BME280;22847;42.654;23.370;2023-04-25T05:40:53;93757.91;;;12.60;82.62
36932;BME280;22847;42.654;23.370;2023-04-25T05:43:18;93852.69;;;13.43;81.30
36932;BME280;22847;42.654;23.370;2023-04-25T05:45:44;93851.81;;;13.36;81.38
36932;BME280;22847;42.654;23.370;2023-04-25T05:48:09;93833.59;;;13.28;82.36
36932;BME280;22847;42.654;23.370;2023-04-25T05:50:35;93661.59;;;12.34;81.44
36932;BME280;22847;42.654;23.370;2023-04-25T05:53:00;93845.22;;;13.55;81.33
36932;BME280;22847;42.654;23.370;2023-04-25T05:55:26;93822.47;;;13.55;80.64
36932;BME280;22847;42.654;23.370;2023-04-25T05:57:51;93795.25;;;13.56;79.98
36932;BME280;22847;42.654;23.370;2023-04-25T06:00:16;93842.47;;;13.77;79.82
36932;BME280;22847;42.654;23.370;2023-04-25T06:02:42;93775.63;;;13.16;78.47
36932;BME280;22847;42.654;23.370;2023-04-25T06:05:08;93654.59;;;12.20;79.00
36932;BME280;22847;42.654;23.370;2023-04-25T06:07:33;93867.97;;;13.54;78.58
36932;BME280;22847;42.654;23.370;2023-04-25T06:09:59;93714.47;;;12.73;79.05
36932;BME280;22847;42.654;23.370;2023-04-25T06:12:26;93680.34;;;12.67;78.96
36932;BME280;22847;42.654;23.370;2023-04-25T06:14:51;93680.63;;;12.86;78.51
36932;BME280;22847;42.654;23.370;2023-04-25T06:17:17;93867.88;;;13.98;77.89
36932;BME280;22847;42.654;23.370;2023-04-25T06:19:42;93845.44;;;13.74;77.96
36932;BME280;22847;42.654;23.370;2023-04-25T06:22:07;93865.66;;;13.95;77.27
36932;BME280;22847;42.654;23.370;2023-04-25T06:24:33;93674.91;;;13.12;76.53
36932;BME280;22847;42.654;23.370;2023-04-25T06:26:59;93813.38;;;14.08;75.63
36932;BME280;22847;42.654;23.370;2023-04-25T06:29:25;93778.06;;;13.18;77.16
36932;BME280;22847;42.654;23.370;2023-04-25T06:31:50;93848.16;;;14.02;76.40
36932;BME280;22847;42.654;23.370;2023-04-25T06:34:16;93764.22;;;13.74;75.69
36932;BME280;22847;42.654;23.370;2023-04-25T06:36:42;93812.84;;;14.19;74.87
36932;BME280;22847;42.654;23.370;2023-04-25T06:39:09;93853.03;;;14.05;73.90
36932;BME280;22847;42.654;23.370;2023-04-25T06:41:34;93733.41;;;13.98;73.61
36932;BME280;22847;42.654;23.370;2023-04-25T06:44:00;93799.69;;;14.34;73.31
36932;BME280;22847;42.654;23.370;2023-04-25T06:46:26;93857.31;;;14.70;73.29
36932;BME280;22847;42.654;23.370;2023-04-25T06:48:52;93833.16;;;14.74;72.55
36932;BME280;22847;42.654;23.370;2023-04-25T06:51:17;93792.91;;;14.95;71.39
36932;BME280;22847;42.654;23.370;2023-04-25T06:53:42;93829.38;;;14.84;69.29
36932;BME280;22847;42.654;23.370;2023-04-25T06:56:08;93873.84;;;14.92;68.98
36932;BME280;22847;42.654;23.370;2023-04-25T06:58:33;93872.47;;;14.96;68.86
36932;BME280;22847;42.654;23.370;2023-04-25T07:00:58;93836.16;;;14.99;68.20
36932;BME280;22847;42.654;23.370;2023-04-25T07:03:24;93684.53;;;14.11;68.97
36932;BME280;22847;42.654;23.370;2023-04-25T07:05:50;93872.38;;;15.38;67.90
36932;BME280;22847;42.654;23.370;2023-04-25T07:08:16;93874.97;;;15.66;67.01
36932;BME280;22847;42.654;23.370;2023-04-25T07:10:41;93786.72;;;15.44;66.62
36932;BME280;22847;42.654;23.370;2023-04-25T07:13:07;93861.38;;;15.28;65.63
36932;BME280;22847;42.654;23.370;2023-04-25T07:15:32;93836.56;;;15.31;66.18
36932;BME280;22847;42.654;23.370;2023-04-25T07:17:58;93839.25;;;15.44;66.36
36932;BME280;22847;42.654;23.370;2023-04-25T07:20:24;93842.59;;;15.31;67.25
36932;BME280;22847;42.654;23.370;2023-04-25T07:22:50;93700.63;;;14.57;68.00
36932;BME280;22847;42.654;23.370;2023-04-25T07:25:16;93834.53;;;15.60;66.78
36932;BME280;22847;42.654;23.370;2023-04-25T07:27:41;93727.03;;;14.84;66.27
36932;BME280;22847;42.654;23.370;2023-04-25T07:30:07;93842.06;;;15.77;66.61
36932;BME280;22847;42.654;23.370;2023-04-25T07:32:33;93690.47;;;14.82;66.53
36932;BME280;22847;42.654;23.370;2023-04-25T07:34:58;93719.06;;;15.05;66.67
36932;BME280;22847;42.654;23.370;2023-04-25T07:37:24;93813.31;;;15.69;66.48
36932;BME280;22847;42.654;23.370;2023-04-25T07:39:50;93838.88;;;15.47;66.64
36932;BME280;22847;42.654;23.370;2023-04-25T07:42:15;93730.63;;;14.48;67.30
36932;BME280;22847;42.654;23.370;2023-04-25T07:44:41;93697.34;;;14.27;67.61
36932;BME280;22847;42.654;23.370;2023-04-25T07:47:08;93706.81;;;14.22;68.02
36932;BME280;22847;42.654;23.370;2023-04-25T07:49:34;93849.25;;;15.27;67.68
36932;BME280;22847;42.654;23.370;2023-04-25T07:52:01;93769.44;;;15.22;67.33
36932;BME280;22847;42.654;23.370;2023-04-25T07:54:26;93677.31;;;14.76;66.41
36932;BME280;22847;42.654;23.370;2023-04-25T07:56:52;93681.78;;;14.82;67.01
36932;BME280;22847;42.654;23.370;2023-04-25T07:59:17;93792.47;;;15.67;67.01
36932;BME280;22847;42.654;23.370;2023-04-25T08:01:42;93834.66;;;15.93;65.63
36932;BME280;22847;42.654;23.370;2023-04-25T08:04:08;93662.28;;;14.97;65.51
36932;BME280;22847;42.654;23.370;2023-04-25T08:06:33;93802.28;;;15.93;64.29
36932;BME280;22847;42.654;23.370;2023-04-25T08:08:59;93818.97;;;16.39;64.34
36932;BME280;22847;42.654;23.370;2023-04-25T08:11:24;93778.13;;;16.70;64.63
36932;BME280;22847;42.654;23.370;2023-04-25T08:13:50;93819.00;;;17.18;62.25
36932;BME280;22847;42.654;23.370;2023-04-25T08:16:15;93797.09;;;17.18;59.03
36932;BME280;22847;42.654;23.370;2023-04-25T08:18:41;93823.38;;;17.64;59.85
36932;BME280;22847;42.654;23.370;2023-04-25T08:21:06;93814.78;;;18.19;57.39
36932;BME280;22847;42.654;23.370;2023-04-25T08:23:34;93809.53;;;18.82;58.75
36932;BME280;22847;42.654;23.370;2023-04-25T08:25:59;93728.03;;;18.61;55.69
36932;BME280;22847;42.654;23.370;2023-04-25T08:28:24;93766.88;;;19.03;55.19
36932;BME280;22847;42.654;23.370;2023-04-25T08:30:50;93648.69;;;18.31;53.78
36932;BME280;22847;42.654;23.370;2023-04-25T08:33:16;93767.59;;;19.10;55.49
36932;BME280;22847;42.654;23.370;2023-04-25T08:35:41;93609.88;;;18.13;54.76
36932;BME280;22847;42.654;23.370;2023-04-25T08:38:07;93607.28;;;18.07;53.77
36932;BME280;22847;42.654;23.370;2023-04-25T08:40:35;93651.84;;;18.15;54.07
36932;BME280;22847;42.654;23.370;2023-04-25T08:43:03;93800.09;;;18.93;54.18
36932;BME280;22847;42.654;23.370;2023-04-25T08:45:31;93793.75;;;18.76;55.63
36932;BME280;22847;42.654;23.370;2023-04-25T08:47:57;93816.25;;;18.78;52.31
36932;BME280;22847;42.654;23.370;2023-04-25T08:50:24;93835.81;;;18.70;54.18
36932;BME280;22847;42.654;23.370;2023-04-25T08:52:53;93785.75;;;18.19;56.93
36932;BME280;22847;42.654;23.370;2023-04-25T08:55:19;93811.28;;;18.32;55.91
36932;BME280;22847;42.654;23.370;2023-04-25T08:57:46;93798.03;;;18.70;56.74
36932;BME280;22847;42.654;23.370;2023-04-25T09:00:12;93796.91;;;19.09;52.83
36932;BME280;22847;42.654;23.370;2023-04-25T09:02:39;93792.34;;;18.73;57.66
36932;BME280;22847;42.654;23.370;2023-04-25T09:05:06;93781.44;;;19.12;60.68
36932;BME280;22847;42.654;23.370;2023-04-25T09:07:32;93744.75;;;19.23;60.82
36932;BME280;22847;42.654;23.370;2023-04-25T09:09:58;93662.56;;;18.69;58.71
36932;BME280;22847;42.654;23.370;2023-04-25T09:12:27;93804.06;;;19.81;58.79
36932;BME280;22847;42.654;23.370;2023-04-25T09:15:08;93762.22;;;19.78;58.67
36932;BME280;22847;42.654;23.370;2023-04-25T09:17:34;93775.22;;;19.62;57.13
36932;BME280;22847;42.654;23.370;2023-04-25T09:20:11;93776.75;;;19.69;56.64
36932;BME280;22847;42.654;23.370;2023-04-25T09:22:37;93803.06;;;19.46;56.58
36932;BME280;22847;42.654;23.370;2023-04-25T09:25:09;93775.38;;;19.05;57.80
36932;BME280;22847;42.654;23.370;2023-04-25T09:27:34;93776.31;;;18.93;58.53
36932;BME280;22847;42.654;23.370;2023-04-25T09:30:01;93770.47;;;18.91;58.57
36932;BME280;22847;42.654;23.370;2023-04-25T09:32:27;93745.94;;;18.59;55.79
36932;BME280;22847;42.654;23.370;2023-04-25T09:34:54;93627.91;;;17.54;56.73
36932;BME280;22847;42.654;23.370;2023-04-25T09:37:22;93767.91;;;18.21;57.65
36932;BME280;22847;42.654;23.370;2023-04-25T09:39:49;93771.41;;;17.71;59.48
36932;BME280;22847;42.654;23.370;2023-04-25T09:42:16;93755.78;;;17.18;62.08
36932;BME280;22847;42.654;23.370;2023-04-25T09:44:45;93742.56;;;17.31;61.54
36932;BME280;22847;42.654;23.370;2023-04-25T09:47:15;93774.28;;;17.56;61.03
36932;BME280;22847;42.654;23.370;2023-04-25T09:49:42;93739.38;;;17.03;62.48
36932;BME280;22847;42.654;23.370;2023-04-25T09:52:09;93636.44;;;16.34;62.37
36932;BME280;22847;42.654;23.370;2023-04-25T09:54:34;93774.25;;;17.05;62.41
36932;BME280;22847;42.654;23.370;2023-04-25T09:59:38;93754.81;;;16.80;62.89
36932;BME280;22847;42.654;23.370;2023-04-25T10:02:07;93768.16;;;17.05;62.88
36932;BME280;22847;42.654;23.370;2023-04-25T10:04:34;93785.34;;;17.20;62.56
36932;BME280;22847;42.654;23.370;2023-04-25T10:07:03;93748.09;;;17.10;61.90
36932;BME280;22847;42.654;23.370;2023-04-25T10:09:31;93779.44;;;17.25;62.07
36932;BME280;22847;42.654;23.370;2023-04-25T10:11:59;93729.50;;;16.52;62.30
36932;BME280;22847;42.654;23.370;2023-04-25T10:14:25;93729.50;;;16.26;63.52
36932;BME280;22847;42.654;23.370;2023-04-25T10:16:52;93731.97;;;16.47;62.24
36932;BME280;22847;42.654;23.370;2023-04-25T10:19:21;93747.78;;;16.61;62.75
36932;BME280;22847;42.654;23.370;2023-04-25T10:21:54;93756.66;;;16.73;63.25
36932;BME280;22847;42.654;23.370;2023-04-25T10:24:20;93796.53;;;16.96;64.47
36932;BME280;22847;42.654;23.370;2023-04-25T10:26:47;93789.84;;;17.00;64.01
36932;BME280;22847;42.654;23.370;2023-04-25T10:29:21;93753.03;;;16.61;63.96
36932;BME280;22847;42.654;23.370;2023-04-25T10:31:47;93721.81;;;16.44;61.46
36932;BME280;22847;42.654;23.370;2023-04-25T10:34:13;93762.28;;;17.09;59.48
36932;BME280;22847;42.654;23.370;2023-04-25T10:36:39;93637.59;;;16.71;62.65
36932;BME280;22847;42.654;23.370;2023-04-25T10:39:05;93730.50;;;17.62;57.74
36932;BME280;22847;42.654;23.370;2023-04-25T10:42:06;93754.44;;;18.29;58.25
36932;BME280;22847;42.654;23.370;2023-04-25T10:44:33;93606.28;;;17.76;58.60
36932;BME280;22847;42.654;23.370;2023-04-25T10:47:00;93751.00;;;18.85;55.80
36932;BME280;22847;42.654;23.370;2023-04-25T10:55:02;93763.34;;;17.53;61.07
36932;BME280;22847;42.654;23.370;2023-04-25T10:57:42;93794.78;;;17.54;61.45
36932;BME280;22847;42.654;23.370;2023-04-25T11:00:20;93783.22;;;17.55;59.35
36932;BME280;22847;42.654;23.370;2023-04-25T11:02:51;93756.19;;;17.15;58.56
36932;BME280;22847;42.654;23.370;2023-04-25T11:05:30;93737.09;;;17.26;59.02
36932;BME280;22847;42.654;23.370;2023-04-25T11:07:57;93574.13;;;16.28;58.34
36932;BME280;22847;42.654;23.370;2023-04-25T11:10:27;93608.69;;;16.51;58.27
36932;BME280;22847;42.654;23.370;2023-04-25T11:12:52;93653.75;;;16.87;58.01
36932;BME280;22847;42.654;23.370;2023-04-25T11:15:18;93595.94;;;16.61;57.71
36932;BME280;22847;42.654;23.370;2023-04-25T11:17:44;93663.25;;;17.39;57.66
36932;BME280;22847;42.654;23.370;2023-04-25T11:20:12;93749.16;;;18.29;55.62
36932;BME280;22847;42.654;23.370;2023-04-25T11:22:40;93770.56;;;18.53;54.27
36932;BME280;22847;42.654;23.370;2023-04-25T11:25:10;93741.13;;;18.74;54.03
36932;BME280;22847;42.654;23.370;2023-04-25T11:27:50;93574.19;;;17.17;52.50
36932;BME280;22847;42.654;23.370;2023-04-25T11:30:20;93714.75;;;17.42;56.41
36932;BME280;22847;42.654;23.370;2023-04-25T11:32:46;93737.38;;;16.99;58.93
36932;BME280;22847;42.654;23.370;2023-04-25T11:35:12;93732.50;;;17.15;59.34
36932;BME280;22847;42.654;23.370;2023-04-25T11:37:42;93739.44;;;16.77;59.88
36932;BME280;22847;42.654;23.370;2023-04-25T11:40:09;93744.03;;;17.08;60.01
36932;BME280;22847;42.654;23.370;2023-04-25T11:42:39;93745.31;;;16.92;60.05
36932;BME280;22847;42.654;23.370;2023-04-25T11:45:05;93762.72;;;16.80;60.13
36932;BME280;22847;42.654;23.370;2023-04-25T11:47:32;93622.31;;;15.89;61.47
36932;BME280;22847;42.654;23.370;2023-04-25T11:49:59;93764.75;;;16.78;61.59
36932;BME280;22847;42.654;23.370;2023-04-25T11:52:35;93780.16;;;16.68;63.66
36932;BME280;22847;42.654;23.370;2023-04-25T11:55:00;93611.19;;;15.87;63.76
36932;BME280;22847;42.654;23.370;2023-04-25T11:57:25;93773.25;;;16.80;60.21
36932;BME280;22847;42.654;23.370;2023-04-25T11:59:51;93664.16;;;15.97;57.09
36932;BME280;22847;42.654;23.370;2023-04-25T12:02:26;93591.03;;;15.07;57.76
36932;BME280;22847;42.654;23.370;2023-04-25T12:04:51;93752.56;;;16.04;60.95
36932;BME280;22847;42.654;23.370;2023-04-25T12:07:17;93677.25;;;15.57;60.48
36932;BME280;22847;42.654;23.370;2023-04-25T12:09:51;93750.94;;;15.97;61.66
36932;BME280;22847;42.654;23.370;2023-04-25T12:12:17;93741.66;;;16.21;59.64
36932;BME280;22847;42.654;23.370;2023-04-25T12:18:02;93743.47;;;16.27;58.20
36932;BME280;22847;42.654;23.370;2023-04-25T12:20:28;93748.34;;;16.30;59.16
36932;BME280;22847;42.654;23.370;2023-04-25T12:22:53;93709.06;;;16.08;59.40
36932;BME280;22847;42.654;23.370;2023-04-25T12:25:35;93738.63;;;16.43;58.38
36932;BME280;22847;42.654;23.370;2023-04-25T12:28:17;93751.59;;;16.38;59.31
36932;BME280;22847;42.654;23.370;2023-04-25T12:31:01;93734.16;;;16.44;59.98
36932;BME280;22847;42.654;23.370;2023-04-25T12:33:29;93715.97;;;16.29;60.20
36932;BME280;22847;42.654;23.370;2023-04-25T12:35:55;93666.78;;;16.03;59.55
36932;BME280;22847;42.654;23.370;2023-04-25T12:38:29;93728.28;;;16.35;60.53
36932;BME280;22847;42.654;23.370;2023-04-25T12:40:59;93734.97;;;16.71;59.95
36932;BME280;22847;42.654;23.370;2023-04-25T12:43:25;93729.53;;;16.72;61.67
36932;BME280;22847;42.654;23.370;2023-04-25T12:45:52;93784.56;;;17.07;61.59
36932;BME280;22847;42.654;23.370;2023-04-25T12:48:18;93785.00;;;16.97;62.17
36932;BME280;22847;42.654;23.370;2023-04-25T12:50:44;93780.13;;;16.81;63.09
36932;BME280;22847;42.654;23.370;2023-04-25T12:53:12;93787.22;;;17.00;63.37
36932;BME280;22847;42.654;23.370;2023-04-25T12:55:38;93781.31;;;16.98;63.89
36932;BME280;22847;42.654;23.370;2023-04-25T12:58:03;93713.13;;;16.24;65.49